createdAt,value
2022-12-16T00:01:09.837Z,56.90
2022-12-16T00:03:37.585Z,59.83
2022-12-16T00:06:05.227Z,64.53
2022-12-16T00:08:33.496Z,57.40
2022-12-16T00:11:00.962Z,66.78
2022-12-16T00:13:29.276Z,56.03
2022-12-16T00:15:56.402Z,53.30
2022-12-16T00:18:22.886Z,54.60
2022-12-16T00:20:52.495Z,56.08
2022-12-16T00:23:22.509Z,51.78
2022-12-16T00:25:49.146Z,57.92
2022-12-16T00:28:16.910Z,62.53
2022-12-16T00:30:44.004Z,55.63
2022-12-16T00:33:13.176Z,63.20
2022-12-16T00:35:44.505Z,67.50
2022-12-16T00:38:15.580Z,62.58
2022-12-16T00:40:42.264Z,63.60
2022-12-16T00:43:08.902Z,60.67
2022-12-16T00:45:37.668Z,58.05
2022-12-16T00:48:04.154Z,59.05
2022-12-16T00:50:31.024Z,58.45
2022-12-16T00:52:57.663Z,64.22
2022-12-16T00:55:24.214Z,61.58
2022-12-16T00:57:50.697Z,62.63
2022-12-16T01:00:18.872Z,55.63
2022-12-16T01:02:48.114Z,51.83
2022-12-16T01:05:16.657Z,56.38
2022-12-16T01:07:43.490Z,62.08
2022-12-16T01:10:11.097Z,60.50
2022-12-16T01:12:38.703Z,63.53
2022-12-16T01:15:08.160Z,59.10
2022-12-16T01:17:35.247Z,59.72
2022-12-16T01:20:02.328Z,58.70
2022-12-16T01:22:32.464Z,59.53
2022-12-16T01:24:59.921Z,62.70
2022-12-16T01:27:27.364Z,53.78
2022-12-16T01:29:53.793Z,61.72
2022-12-16T01:32:22.599Z,52.85
2022-12-16T01:34:52.603Z,55.33
2022-12-16T01:37:22.767Z,58.92
2022-12-16T01:39:49.368Z,56.53
2022-12-16T01:42:17.564Z,58.47
2022-12-16T01:44:45.553Z,60.20
2022-12-16T01:47:23.978Z,65.45
2022-12-16T01:49:55.620Z,59.00
2022-12-16T01:52:28.007Z,53.72
2022-12-16T01:55:02.167Z,56.67
2022-12-16T01:57:37.727Z,60.55
2022-12-16T02:00:06.427Z,56.60
2022-12-16T02:02:41.140Z,55.90
2022-12-16T02:05:22.877Z,65.00
2022-12-16T02:08:21.474Z,64.57
2022-12-16T02:11:04.704Z,60.92
2022-12-16T02:14:08.782Z,56.55
2022-12-16T02:16:59.862Z,61.50
2022-12-16T02:22:42.949Z,53.15
2022-12-16T02:25:51.285Z,58.30
2022-12-16T02:28:52.490Z,53.20
2022-12-16T02:31:32.567Z,55.35
2022-12-16T02:34:26.200Z,60.78
2022-12-16T02:37:18.111Z,57.07
2022-12-16T02:39:56.865Z,60.47
2022-12-16T02:42:40.208Z,53.78
2022-12-16T02:45:13.276Z,62.72
2022-12-16T02:47:39.912Z,72.55
2022-12-16T02:50:17.468Z,61.30
2022-12-16T02:52:44.131Z,62.45
2022-12-16T02:55:11.203Z,58.97
2022-12-16T03:02:34.249Z,62.90
2022-12-16T03:05:08.729Z,63.17
2022-12-16T03:07:38.417Z,59.38
2022-12-16T03:10:09.481Z,49.65
2022-12-16T03:12:41.959Z,54.17
2022-12-16T03:15:10.101Z,61.30
2022-12-16T03:20:11.364Z,54.65
2022-12-16T03:22:42.089Z,52.40
2022-12-16T03:25:16.477Z,57.80
2022-12-16T03:29:01.633Z,59.03
2022-12-16T03:31:37.198Z,62.03
2022-12-16T03:36:37.038Z,51.80
2022-12-16T03:39:06.017Z,59.58
2022-12-16T03:41:33.080Z,67.28
2022-12-16T03:43:59.818Z,56.60
2022-12-16T03:46:26.687Z,55.08
2022-12-16T03:48:53.128Z,57.90
2022-12-16T03:51:19.688Z,56.08
2022-12-16T03:53:46.663Z,59.70
2022-12-16T03:56:13.324Z,59.10
2022-12-16T03:58:40.400Z,54.92
2022-12-16T04:01:09.434Z,58.33
2022-12-16T04:03:37.549Z,60.60
2022-12-16T04:06:05.121Z,60.70
2022-12-16T04:08:31.578Z,58.70
2022-12-16T04:11:16.591Z,57.08
2022-12-16T04:14:01.645Z,62.95
2022-12-16T04:16:48.179Z,59.95
2022-12-16T04:19:50.460Z,62.38
2022-12-16T04:22:39.919Z,70.22
2022-12-16T04:25:22.467Z,55.00
2022-12-16T04:27:48.861Z,60.40
2022-12-16T04:30:20.506Z,58.70
2022-12-16T04:33:14.773Z,66.32
2022-12-16T04:35:59.914Z,56.67
2022-12-16T04:38:45.070Z,62.15
2022-12-16T04:41:30.786Z,62.47
2022-12-16T04:44:16.324Z,56.95
2022-12-16T04:47:01.342Z,56.60
2022-12-16T04:49:51.360Z,60.30
2022-12-16T04:52:37.029Z,53.58
2022-12-16T04:55:25.758Z,57.65
2022-12-16T04:58:16.412Z,55.97
2022-12-16T05:01:02.233Z,56.40
2022-12-16T05:03:48.152Z,55.03
2022-12-16T05:06:33.834Z,49.85
2022-12-16T05:09:19.282Z,59.08
2022-12-16T05:12:04.592Z,54.22
2022-12-16T05:14:49.557Z,58.83
2022-12-16T05:17:34.614Z,61.35
2022-12-16T05:20:19.854Z,60.90
2022-12-16T05:23:04.718Z,57.92
2022-12-16T05:25:50.299Z,56.83
2022-12-16T05:28:35.717Z,57.38
2022-12-16T05:31:20.921Z,60.13
2022-12-16T05:34:06.487Z,60.60
2022-12-16T05:36:51.660Z,59.92
2022-12-16T05:39:36.710Z,56.88
2022-12-16T05:42:21.953Z,60.88
2022-12-16T05:45:07.109Z,65.65
2022-12-16T05:47:53.108Z,62.00
2022-12-16T05:50:38.290Z,59.78
2022-12-16T05:53:26.674Z,67.93
2022-12-16T05:56:11.852Z,62.63
2022-12-16T05:58:56.865Z,58.30
2022-12-16T06:01:41.870Z,62.47
2022-12-16T06:04:36.930Z,63.55
2022-12-16T06:07:22.066Z,65.05
2022-12-16T06:10:06.879Z,70.00
2022-12-16T06:12:51.764Z,63.85
2022-12-16T06:15:36.739Z,59.53
2022-12-16T06:18:21.850Z,59.72
2022-12-16T06:21:09.584Z,60.80
2022-12-16T06:23:54.356Z,67.78
2022-12-16T06:26:39.328Z,58.73
2022-12-16T06:29:24.285Z,59.58
2022-12-16T06:32:09.087Z,69.07
2022-12-16T06:34:54.107Z,66.07
2022-12-16T06:37:39.034Z,57.05
2022-12-16T06:40:24.677Z,65.50
2022-12-16T06:43:09.747Z,54.78
2022-12-16T06:45:54.878Z,52.97
2022-12-16T06:48:39.993Z,60.13
2022-12-16T06:51:30.771Z,54.90
2022-12-16T06:54:15.700Z,54.45
2022-12-16T06:57:00.596Z,68.32
2022-12-16T06:59:48.515Z,72.70
2022-12-16T07:02:33.583Z,55.55
2022-12-16T07:05:18.747Z,53.67
2022-12-16T07:08:09.121Z,60.05
2022-12-16T07:10:55.297Z,66.85
2022-12-16T07:13:42.061Z,63.93
2022-12-16T07:16:27.015Z,68.00
2022-12-16T07:19:15.295Z,66.45
2022-12-16T07:22:00.299Z,64.13
2022-12-16T07:24:45.959Z,56.85
2022-12-16T07:27:34.532Z,64.50
2022-12-16T07:30:20.049Z,64.47
2022-12-16T07:33:08.878Z,63.83
2022-12-16T07:35:53.852Z,70.40
2022-12-16T07:38:41.943Z,58.30
2022-12-16T07:41:26.747Z,68.20
2022-12-16T07:44:11.673Z,60.27
2022-12-16T07:46:59.528Z,53.83
2022-12-16T07:49:44.516Z,60.00
2022-12-16T07:52:29.407Z,66.73
2022-12-16T07:55:14.197Z,55.38
2022-12-16T07:57:59.045Z,65.45
2022-12-16T08:00:43.885Z,55.00
2022-12-16T08:03:28.890Z,59.88
2022-12-16T08:06:14.043Z,61.10
2022-12-16T08:08:58.906Z,58.37
2022-12-16T08:11:54.489Z,58.55
2022-12-16T08:14:39.563Z,50.67
2022-12-16T08:17:24.737Z,50.70
2022-12-16T08:20:09.585Z,58.60
2022-12-16T08:22:54.383Z,60.53
2022-12-16T08:25:40.368Z,61.70
2022-12-16T08:28:25.526Z,54.08
2022-12-16T08:31:11.138Z,51.40
2022-12-16T08:33:56.410Z,67.78
2022-12-16T08:36:54.958Z,57.80
2022-12-16T08:39:40.279Z,56.40
2022-12-16T08:42:25.434Z,69.57
2022-12-16T08:45:10.372Z,58.67
2022-12-16T08:47:58.339Z,64.33
2022-12-16T08:50:43.171Z,72.70
2022-12-16T08:53:28.139Z,65.47
2022-12-16T08:56:12.946Z,73.28
2022-12-16T08:58:57.721Z,78.03
2022-12-16T09:01:42.653Z,74.70
2022-12-16T09:04:27.953Z,77.05
2022-12-16T09:07:12.957Z,73.65
2022-12-16T09:09:57.793Z,84.72
2022-12-16T09:12:42.811Z,75.53
2022-12-16T09:15:29.159Z,88.00
2022-12-16T09:18:14.494Z,82.47
2022-12-16T09:20:59.910Z,76.90
2022-12-16T09:23:45.222Z,80.10
2022-12-16T09:26:30.313Z,77.93
2022-12-16T09:29:15.249Z,75.68
2022-12-16T09:32:00.152Z,83.78
2022-12-16T09:34:45.034Z,77.80
2022-12-16T09:37:29.953Z,78.68
2022-12-16T09:40:14.766Z,79.47
2022-12-16T09:43:23.834Z,88.32
2022-12-16T09:47:04.942Z,79.70
2022-12-16T09:50:08.562Z,78.30
2022-12-16T09:53:06.871Z,80.50
2022-12-16T09:55:57.131Z,80.88
2022-12-16T09:58:45.350Z,88.30
2022-12-16T10:01:32.342Z,87.88
2022-12-16T10:04:18.003Z,87.63
2022-12-16T10:07:19.525Z,79.70
2022-12-16T10:10:23.249Z,92.78
2022-12-16T10:13:40.755Z,91.07
2022-12-16T10:16:47.837Z,95.88
2022-12-16T10:20:13.923Z,91.03
2022-12-16T10:23:14.606Z,103.38
2022-12-16T10:26:15.791Z,95.05
2022-12-16T10:31:51.578Z,99.10
2022-12-16T10:34:46.939Z,98.38
2022-12-16T10:37:41.837Z,93.25
2022-12-16T10:40:35.266Z,93.10
2022-12-16T10:43:28.655Z,98.68
2022-12-16T10:46:16.235Z,104.38
2022-12-16T10:49:04.508Z,104.22
2022-12-16T10:52:00.188Z,101.65
2022-12-16T10:54:56.667Z,98.68
2022-12-16T10:58:09.429Z,103.93
2022-12-16T11:01:01.681Z,106.28
2022-12-16T11:03:48.995Z,101.47
2022-12-16T11:06:41.539Z,104.63
2022-12-16T11:09:52.475Z,106.90
2022-12-16T11:15:44.338Z,99.10
2022-12-16T11:18:40.876Z,97.78
2022-12-16T11:21:29.748Z,93.38
2022-12-16T11:24:34.797Z,94.25
2022-12-16T11:27:32.934Z,96.97
2022-12-16T11:30:20.772Z,98.35
2022-12-16T11:33:12.731Z,97.40
2022-12-16T11:36:02.690Z,97.25
2022-12-16T11:38:58.467Z,94.65
2022-12-16T11:41:49.793Z,95.22
2022-12-16T11:44:39.686Z,103.47
2022-12-16T11:47:37.214Z,97.18
2022-12-16T11:50:29.806Z,104.07
2022-12-16T11:53:15.707Z,101.93
2022-12-16T11:56:23.986Z,97.40
2022-12-16T11:59:16.211Z,91.35
2022-12-16T12:02:14.847Z,101.40
2022-12-16T12:05:00.217Z,95.57
2022-12-16T12:07:57.258Z,96.40
2022-12-16T12:10:57.571Z,97.18
2022-12-16T12:14:09.823Z,62.23
2022-12-16T12:17:10.562Z,92.93
2022-12-16T12:20:13.254Z,86.00
2022-12-16T12:22:58.697Z,96.07
2022-12-16T12:26:05.387Z,101.75
2022-12-16T12:29:26.492Z,95.93
2022-12-16T12:32:42.366Z,93.30
2022-12-16T12:36:08.553Z,95.78
2022-12-16T12:39:11.226Z,96.82
2022-12-16T12:42:12.760Z,94.38
2022-12-16T12:45:33.821Z,96.68
2022-12-16T12:48:57.415Z,92.00
2022-12-16T12:52:10.636Z,97.38
2022-12-16T12:55:19.909Z,87.60
2022-12-16T12:58:10.849Z,90.82
2022-12-16T13:01:04.888Z,97.47
2022-12-16T13:04:23.769Z,95.88
2022-12-16T13:07:13.641Z,98.22
2022-12-16T13:09:58.718Z,104.18
2022-12-16T13:12:47.373Z,104.95
2022-12-16T13:15:55.452Z,99.00
2022-12-16T13:18:43.591Z,101.82
2022-12-16T13:21:56.990Z,100.57
2022-12-16T13:24:45.364Z,97.05
2022-12-16T13:27:32.737Z,90.25
2022-12-16T13:30:35.857Z,98.05
2022-12-16T13:33:36.440Z,100.55
2022-12-16T13:36:22.114Z,99.40
2022-12-16T13:39:10.462Z,98.88
2022-12-16T13:41:55.476Z,92.97
2022-12-16T13:45:02.180Z,101.10
2022-12-16T13:47:59.399Z,96.85
2022-12-16T13:51:18.137Z,89.25
2022-12-16T13:54:10.187Z,102.95
2022-12-16T13:59:46.997Z,95.50
2022-12-16T14:02:46.089Z,99.22
2022-12-16T14:05:48.789Z,98.45
2022-12-16T14:08:56.578Z,100.88
2022-12-16T14:11:54.810Z,91.93
2022-12-16T14:14:48.745Z,103.47
2022-12-16T14:17:45.189Z,98.28
2022-12-16T14:20:47.643Z,98.90
2022-12-16T14:24:15.696Z,97.45
2022-12-16T14:27:01.168Z,105.22
2022-12-16T14:29:48.210Z,98.60
2022-12-16T14:32:45.255Z,93.97
2022-12-16T14:35:36.815Z,98.80
2022-12-16T14:38:50.449Z,109.70
2022-12-16T14:41:41.526Z,103.65
2022-12-16T14:44:53.034Z,97.78
2022-12-16T14:47:39.926Z,100.32
2022-12-16T14:51:00.666Z,94.95
2022-12-16T14:53:51.518Z,99.70
2022-12-16T14:56:41.676Z,110.63
2022-12-16T14:59:38.822Z,107.63
2022-12-16T15:02:52.811Z,98.75
2022-12-16T15:05:39.351Z,89.95
2022-12-16T15:08:28.583Z,101.63
2022-12-16T15:11:13.944Z,97.55
2022-12-16T15:14:03.517Z,108.30
2022-12-16T15:16:55.005Z,98.68
2022-12-16T15:19:43.405Z,99.43
2022-12-16T15:22:33.429Z,96.65
2022-12-16T15:25:22.509Z,102.35
2022-12-16T15:28:15.116Z,104.25
2022-12-16T15:31:02.663Z,97.38
2022-12-16T15:33:52.797Z,99.68
2022-12-16T15:36:48.057Z,94.38
2022-12-16T15:39:54.843Z,101.45
2022-12-16T15:42:43.561Z,103.55
2022-12-16T15:45:47.568Z,98.65
2022-12-16T15:48:54.394Z,100.97
2022-12-16T15:51:42.421Z,102.20
2022-12-16T15:54:41.194Z,95.72
2022-12-16T15:57:44.195Z,95.40
2022-12-16T16:00:44.897Z,104.25
2022-12-16T16:03:48.760Z,77.10
2022-12-16T16:06:41.078Z,93.68
2022-12-16T16:09:39.689Z,96.95
2022-12-16T16:12:26.982Z,96.22
2022-12-16T16:15:12.304Z,104.45
2022-12-16T16:17:57.210Z,100.28
2022-12-16T16:20:46.988Z,91.80
2022-12-16T16:23:40.985Z,103.03
2022-12-16T16:26:29.589Z,97.32
2022-12-16T16:29:14.459Z,98.05
2022-12-16T16:32:03.834Z,99.40
2022-12-16T16:34:49.787Z,89.35
2022-12-16T16:37:37.164Z,96.72
2022-12-16T16:40:37.115Z,94.65
2022-12-16T16:43:22.457Z,98.15
2022-12-16T16:46:26.608Z,91.18
2022-12-16T16:49:11.705Z,92.95
2022-12-16T16:51:56.523Z,92.40
2022-12-16T16:54:47.553Z,96.90
2022-12-16T16:57:32.453Z,96.35
2022-12-16T17:00:27.908Z,97.60
2022-12-16T17:03:13.862Z,95.32
2022-12-16T17:05:58.848Z,93.82
2022-12-16T17:08:47.271Z,97.10
2022-12-16T17:11:37.383Z,93.97
2022-12-16T17:14:22.145Z,97.35
2022-12-16T17:17:07.042Z,99.55
2022-12-16T17:19:51.742Z,99.15
2022-12-16T17:22:38.672Z,104.88
2022-12-16T17:25:24.395Z,100.82
2022-12-16T17:28:09.228Z,100.55
2022-12-16T17:30:57.108Z,104.82
2022-12-16T17:33:42.523Z,100.47
2022-12-16T17:36:32.248Z,95.18
2022-12-16T17:39:17.340Z,98.82
2022-12-16T17:42:02.156Z,91.30
2022-12-16T17:44:46.975Z,104.15
2022-12-16T17:47:32.933Z,100.28
2022-12-16T17:50:18.040Z,102.30
2022-12-16T17:53:02.967Z,102.60
2022-12-16T17:55:47.701Z,101.10
2022-12-16T17:58:32.597Z,99.60
2022-12-16T18:01:22.108Z,107.97
2022-12-16T18:04:07.906Z,113.75
2022-12-16T18:06:53.684Z,108.45
2022-12-16T18:09:41.591Z,113.95
2022-12-16T18:12:26.477Z,105.07
2022-12-16T18:15:11.696Z,109.50
2022-12-16T18:17:56.636Z,112.60
2022-12-16T18:20:41.887Z,118.03
2022-12-16T18:23:31.929Z,116.47
2022-12-16T18:26:20.182Z,124.32
2022-12-16T18:29:05.100Z,131.27
2022-12-16T18:31:50.103Z,111.57
2022-12-16T18:34:35.241Z,111.30
2022-12-16T18:37:20.171Z,105.32
2022-12-16T18:40:08.294Z,104.00
2022-12-16T18:42:53.226Z,103.00
2022-12-16T18:45:38.201Z,100.15
2022-12-16T18:48:23.252Z,107.50
2022-12-16T18:51:16.145Z,106.38
2022-12-16T18:54:01.648Z,103.30
2022-12-16T18:56:46.750Z,103.03
2022-12-16T18:59:32.039Z,103.65
2022-12-16T19:02:17.138Z,99.60
2022-12-16T19:05:02.331Z,105.60
2022-12-16T19:07:47.280Z,106.70
2022-12-16T19:10:32.519Z,100.50
2022-12-16T19:13:19.828Z,99.10
2022-12-16T19:16:15.607Z,115.13
2022-12-16T19:19:00.737Z,95.93
2022-12-16T19:21:56.961Z,99.72
2022-12-16T19:24:43.177Z,100.15
2022-12-16T19:27:35.945Z,108.22
2022-12-16T19:30:21.534Z,102.35
2022-12-16T19:33:07.392Z,103.28
2022-12-16T19:35:52.315Z,107.22
2022-12-16T19:38:38.434Z,105.90
2022-12-16T19:41:23.942Z,103.63
2022-12-16T19:44:08.906Z,103.85
2022-12-16T19:46:55.976Z,94.78
2022-12-16T19:49:59.225Z,108.85
2022-12-16T19:52:44.104Z,103.75
2022-12-16T19:55:29.055Z,96.70
2022-12-16T19:58:14.043Z,99.97
2022-12-16T20:00:58.943Z,99.43
2022-12-16T20:03:44.973Z,104.07
2022-12-16T20:06:30.319Z,107.50
2022-12-16T20:09:32.270Z,109.65
2022-12-16T20:12:17.274Z,102.22
2022-12-16T20:15:02.135Z,111.28
2022-12-16T20:17:47.163Z,105.82
2022-12-16T20:20:32.063Z,104.35
2022-12-16T20:23:16.966Z,104.47
2022-12-16T20:26:01.949Z,102.53
2022-12-16T20:28:47.233Z,104.47
2022-12-16T20:31:32.071Z,96.93
2022-12-16T20:34:17.086Z,92.85
2022-12-16T20:37:02.394Z,106.68
2022-12-16T20:39:56.409Z,101.43
2022-12-16T20:42:53.302Z,99.22
2022-12-16T20:45:38.923Z,103.45
2022-12-16T20:48:24.108Z,106.72
2022-12-16T20:51:22.618Z,119.20
2022-12-16T20:54:10.948Z,113.30
2022-12-16T20:56:56.587Z,105.70
2022-12-16T20:59:42.169Z,119.20
2022-12-16T21:02:36.474Z,106.38
2022-12-16T21:05:28.428Z,110.15
2022-12-16T21:08:13.335Z,103.10
2022-12-16T21:10:58.209Z,174.90
2022-12-16T21:13:43.880Z,126.05
2022-12-16T21:16:29.035Z,176.48
2022-12-16T21:19:14.281Z,182.30
2022-12-16T21:22:02.016Z,131.63
2022-12-16T21:24:47.317Z,117.53
2022-12-16T21:27:32.521Z,111.20
2022-12-16T21:30:17.385Z,112.38
2022-12-16T21:33:02.533Z,98.35
2022-12-16T21:35:47.948Z,109.50
2022-12-16T21:38:32.965Z,102.00
2022-12-16T21:41:17.986Z,102.75
2022-12-16T21:44:02.952Z,102.90
2022-12-16T21:46:47.849Z,116.95
2022-12-16T21:49:32.708Z,115.47
2022-12-16T21:52:17.706Z,101.97
2022-12-16T21:55:02.635Z,104.40
2022-12-16T21:57:47.894Z,114.55
2022-12-16T22:00:33.413Z,116.40
2022-12-16T22:03:18.291Z,120.43
2022-12-16T22:06:03.517Z,113.82
2022-12-16T22:08:48.416Z,117.47
2022-12-16T22:11:33.833Z,115.72
2022-12-16T22:14:19.240Z,122.50
2022-12-16T22:17:07.297Z,117.68
2022-12-16T22:19:52.440Z,123.22
2022-12-16T22:22:37.339Z,125.53
2022-12-16T22:25:23.219Z,122.10
2022-12-16T22:28:10.946Z,132.82
2022-12-16T22:30:56.196Z,137.63
2022-12-16T22:33:41.765Z,125.10
2022-12-16T22:36:29.068Z,119.03
2022-12-16T22:39:13.936Z,128.38
2022-12-16T22:41:58.973Z,127.50
2022-12-16T22:44:43.824Z,130.05
2022-12-16T22:47:28.651Z,126.53
2022-12-16T22:50:13.624Z,115.05
2022-12-16T22:52:58.507Z,123.75
2022-12-16T22:55:43.457Z,123.38
2022-12-16T22:58:29.742Z,117.55
2022-12-16T23:01:14.977Z,127.40
2022-12-16T23:03:59.816Z,120.60
2022-12-16T23:06:44.715Z,124.82
2022-12-16T23:09:29.629Z,139.95
2022-12-16T23:12:14.600Z,129.43
2022-12-16T23:14:59.725Z,135.75
2022-12-16T23:17:44.746Z,124.97
2022-12-16T23:20:30.017Z,122.70
2022-12-16T23:23:16.052Z,130.23
2022-12-16T23:26:01.109Z,123.47
2022-12-16T23:28:46.466Z,118.97
2022-12-16T23:31:31.539Z,117.88
2022-12-16T23:34:16.714Z,128.13
2022-12-16T23:37:02.691Z,122.75
2022-12-16T23:39:47.633Z,128.02
2022-12-16T23:42:32.609Z,129.60
2022-12-16T23:45:17.571Z,122.68
2022-12-16T23:48:02.580Z,127.93
2022-12-16T23:50:47.433Z,122.57
2022-12-16T23:53:32.416Z,132.50
2022-12-16T23:56:19.314Z,136.63
2022-12-16T23:59:07.383Z,136.60
